Terminal Aerodrome Forecast
Issued by NWS

Home | Current Version | Previous Version | Text Only | Print | Product List | Glossary On
Versions: 1 2 3 4 5 6 7 8 9 10 11 12 13 14 15
000
FTUS46 KSEW 240522
TAFBFI
TAF
KBFI 240522Z 2406/2506 16004KT P6SM -SHRA SCT015 BKN035 OVC050
     FM241300 VRB03KT P6SM SCT018 BKN035 OVC060
     FM241700 32005KT P6SM SCT030 BKN050 OVC090
     FM242200 31007KT P6SM SCT035 BKN070
     FM250500 18005KT P6SM SCT025 BKN035 OVC050=

USA.gov is the U.S. government's official web portal to all federal, state and local government web resources and services.